Maersk Dispatcher — XJAJ — position and weather

sailwx.info

Track history (hours):
 
Tides and Currents Weather Stations Pressure Air Temp Water Temp Dewpoint Dewpoint Depression Visibility Wind Speed Wind Dir Waves Ship Positions

Maersk Dispatcher

Last reported at 2015-Apr-01 10:26 UTC. Time now 2015-Apr-01 16:35 UTC.
Position N 47°17' W 052°32'.

Length 89 m; draft 6.5 m.

Type: Other ship. MMSI: 316013080.

Date/timePositionNaut miles runAvg speedWind from/ knotsBaromVisibWave heightAir tempDewpointWater temp
2015-Apr-01 10:26N 47°17' W 052°32'1 0.1
2015-Mar-31 16:30N 47°17' W 052°34'21 0.4
2015-Mar-29 12:32N 47°29' W 052°09'1312.4
2015-Mar-29 11:31N 47°32' W 052°27'1010.3
2015-Mar-29 10:33N 47°34' W 052°42'0 0.0
2015-Mar-29 09:30N 47°34' W 052°42'0 0.0
2015-Mar-29 08:27N 47°34' W 052°42'0 0.0
2015-Mar-29 07:30N 47°34' W 052°42'0 0.0
2015-Mar-29 06:30N 47°34' W 052°42'0 0.0
2015-Mar-29 05:18N 47°34' W 052°42'0 0.0
2015-Mar-29 04:30N 47°34' W 052°42'0 0.0
2015-Mar-29 03:33N 47°34' W 052°42'0 0.0
2015-Mar-29 02:30N 47°34' W 052°42'0 0.0
2015-Mar-29 01:30N 47°34' W 052°42'0 0.0
2015-Mar-29 00:30N 47°34' W 052°42'0 0.0
2015-Mar-28 23:27N 47°34' W 052°42'0 0.0
2015-Mar-28 22:27N 47°34' W 052°42'0 0.0
2015-Mar-28 21:33N 47°34' W 052°42'0 0.0
2015-Mar-28 20:33N 47°34' W 052°42'0 0.0
2015-Mar-28 19:21N 47°34' W 052°42'0 0.0
2015-Mar-28 18:33N 47°34' W 052°42'2 1.8
2015-Mar-28 17:28N 47°34' W 052°39'1 0.8
2015-Mar-28 16:33N 47°33' W 052°39'0 0.1
2015-Mar-28 15:27N 47°33' W 052°39'0 0.3
2015-Mar-28 14:25N 47°33' W 052°39'1 1.4
2015-Mar-28 13:31N 47°34' W 052°39'1 1.0
2015-Mar-28 12:32N 47°33' W 052°40'2 1.6
2015-Mar-28 11:29N 47°34' W 052°42'0 0.0
2015-Mar-28 10:32N 47°34' W 052°42'0 0.0
2015-Mar-28 09:32N 47°34' W 052°42'0 0.0
2015-Mar-28 08:32N 47°34' W 052°42'0 0.0
2015-Mar-28 07:26N 47°34' W 052°42'0 0.0
2015-Mar-28 06:32N 47°34' W 052°42'0 0.0
2015-Mar-28 05:29N 47°34' W 052°42'0 0.0
2015-Mar-28 04:32N 47°34' W 052°42'0 0.0
2015-Mar-28 03:32N 47°34' W 052°42'0 0.0
2015-Mar-28 02:32N 47°34' W 052°42'0 0.0
2015-Mar-28 01:32N 47°34' W 052°42'0 0.0
2015-Mar-28 00:26N 47°34' W 052°42'0 0.0
2015-Mar-27 23:32N 47°34' W 052°42'0 0.1
2015-Mar-27 20:23N 47°34' W 052°42'0 0.0
2015-Mar-27 19:17N 47°34' W 052°42'0 0.0
2015-Mar-27 18:23N 47°34' W 052°42'0 0.0
2015-Mar-27 17:05N 47°34' W 052°42'0 0.0
2015-Mar-27 16:11N 47°34' W 052°42'0 0.0
2015-Mar-27 15:17N 47°34' W 052°42'0 0.0
2015-Mar-27 14:17N 47°34' W 052°42'0 0.0
2015-Mar-27 13:11N 47°34' W 052°42'0 0.0
2015-Mar-27 12:23N 47°34' W 052°42'0 0.0
2015-Mar-27 11:11N 47°34' W 052°42'0 0.0
2015-Mar-27 10:29N 47°34' W 052°42'0 0.0
2015-Mar-27 09:29N 47°34' W 052°42'0 0.0
2015-Mar-27 08:32N 47°34' W 052°42'7 7.1
2015-Mar-27 07:31N 47°28' W 052°35'11 0.7
2015-Mar-26 14:04N 47°17' W 052°35'913.9
2015-Mar-26 13:24N 47°16' W 052°21'  
2015-Mar-23 21:32N 47°31' W 052°18'1211.6
2015-Mar-23 20:31N 47°33' W 052°35'5 4.8
2015-Mar-23 19:31N 47°34' W 052°42'0 0.0
2015-Mar-23 18:24N 47°34' W 052°42'0 0.0
2015-Mar-23 17:24N 47°34' W 052°42'0 0.0
2015-Mar-23 16:33N 47°34' W 052°42'0 0.0
2015-Mar-23 15:33N 47°34' W 052°42'0 0.0
2015-Mar-23 14:27N 47°34' W 052°42'0 0.0
2015-Mar-23 13:18N 47°34' W 052°42'0 0.0
2015-Mar-23 12:27N 47°34' W 052°42'0 0.0
2015-Mar-23 11:33N 47°34' W 052°42'0 0.0
2015-Mar-23 10:27N 47°34' W 052°42'0 0.1
2015-Mar-23 07:18N 47°34' W 052°42'0 0.0
2015-Mar-23 06:06N 47°34' W 052°42'0 0.0
2015-Mar-23 04:27N 47°34' W 052°42'0 0.1
2015-Mar-23 03:29N 47°34' W 052°42'  
Track history (hours):
 
Tides and Currents Weather Stations Pressure Air Temp Water Temp Dewpoint Dewpoint Depression Visibility Wind Speed Wind Dir Waves Ship Positions

Maersk Dispatcher

Last reported at 2015-Apr-01 10:26 UTC. Time now 2015-Apr-01 16:35 UTC.
Position N 47°17' W 052°32'.

Length 89 m; draft 6.5 m.

Type: Other ship. MMSI: 316013080.

Date/timePositionNaut miles runAvg speedWind from/ knotsBaromVisibWave heightAir tempDewpointWater temp
2015-Apr-01 10:26N 47°17' W 052°32'1 0.1
2015-Mar-31 16:30N 47°17' W 052°34'21 0.4
2015-Mar-29 12:32N 47°29' W 052°09'1312.4
2015-Mar-29 11:31N 47°32' W 052°27'1010.3
2015-Mar-29 10:33N 47°34' W 052°42'0 0.0
2015-Mar-29 09:30N 47°34' W 052°42'0 0.0
2015-Mar-29 08:27N 47°34' W 052°42'0 0.0
2015-Mar-29 07:30N 47°34' W 052°42'0 0.0
2015-Mar-29 06:30N 47°34' W 052°42'0 0.0
2015-Mar-29 05:18N 47°34' W 052°42'0 0.0
2015-Mar-29 04:30N 47°34' W 052°42'0 0.0
2015-Mar-29 03:33N 47°34' W 052°42'0 0.0
2015-Mar-29 02:30N 47°34' W 052°42'0 0.0
2015-Mar-29 01:30N 47°34' W 052°42'0 0.0
2015-Mar-29 00:30N 47°34' W 052°42'0 0.0
2015-Mar-28 23:27N 47°34' W 052°42'0 0.0
2015-Mar-28 22:27N 47°34' W 052°42'0 0.0
2015-Mar-28 21:33N 47°34' W 052°42'0 0.0
2015-Mar-28 20:33N 47°34' W 052°42'0 0.0
2015-Mar-28 19:21N 47°34' W 052°42'0 0.0
2015-Mar-28 18:33N 47°34' W 052°42'2 1.8
2015-Mar-28 17:28N 47°34' W 052°39'1 0.8
2015-Mar-28 16:33N 47°33' W 052°39'0 0.1
2015-Mar-28 15:27N 47°33' W 052°39'0 0.3
2015-Mar-28 14:25N 47°33' W 052°39'1 1.4
2015-Mar-28 13:31N 47°34' W 052°39'1 1.0
2015-Mar-28 12:32N 47°33' W 052°40'2 1.6
2015-Mar-28 11:29N 47°34' W 052°42'0 0.0
2015-Mar-28 10:32N 47°34' W 052°42'0 0.0
2015-Mar-28 09:32N 47°34' W 052°42'0 0.0
2015-Mar-28 08:32N 47°34' W 052°42'0 0.0
2015-Mar-28 07:26N 47°34' W 052°42'0 0.0
2015-Mar-28 06:32N 47°34' W 052°42'0 0.0
2015-Mar-28 05:29N 47°34' W 052°42'0 0.0
2015-Mar-28 04:32N 47°34' W 052°42'0 0.0
2015-Mar-28 03:32N 47°34' W 052°42'0 0.0
2015-Mar-28 02:32N 47°34' W 052°42'0 0.0
2015-Mar-28 01:32N 47°34' W 052°42'0 0.0
2015-Mar-28 00:26N 47°34' W 052°42'0 0.0
2015-Mar-27 23:32N 47°34' W 052°42'0 0.1
2015-Mar-27 20:23N 47°34' W 052°42'0 0.0
2015-Mar-27 19:17N 47°34' W 052°42'0 0.0
2015-Mar-27 18:23N 47°34' W 052°42'0 0.0
2015-Mar-27 17:05N 47°34' W 052°42'0 0.0
2015-Mar-27 16:11N 47°34' W 052°42'0 0.0
2015-Mar-27 15:17N 47°34' W 052°42'0 0.0
2015-Mar-27 14:17N 47°34' W 052°42'0 0.0
2015-Mar-27 13:11N 47°34' W 052°42'0 0.0
2015-Mar-27 12:23N 47°34' W 052°42'0 0.0
2015-Mar-27 11:11N 47°34' W 052°42'0 0.0
2015-Mar-27 10:29N 47°34' W 052°42'0 0.0
2015-Mar-27 09:29N 47°34' W 052°42'0 0.0
2015-Mar-27 08:32N 47°34' W 052°42'7 7.1
2015-Mar-27 07:31N 47°28' W 052°35'11 0.7
2015-Mar-26 14:04N 47°17' W 052°35'913.9
2015-Mar-26 13:24N 47°16' W 052°21'  
2015-Mar-23 21:32N 47°31' W 052°18'1211.6
2015-Mar-23 20:31N 47°33' W 052°35'5 4.8
2015-Mar-23 19:31N 47°34' W 052°42'0 0.0
2015-Mar-23 18:24N 47°34' W 052°42'0 0.0
2015-Mar-23 17:24N 47°34' W 052°42'0 0.0
2015-Mar-23 16:33N 47°34' W 052°42'0 0.0
2015-Mar-23 15:33N 47°34' W 052°42'0 0.0
2015-Mar-23 14:27N 47°34' W 052°42'0 0.0
2015-Mar-23 13:18N 47°34' W 052°42'0 0.0
2015-Mar-23 12:27N 47°34' W 052°42'0 0.0
2015-Mar-23 11:33N 47°34' W 052°42'0 0.0
2015-Mar-23 10:27N 47°34' W 052°42'0 0.1
2015-Mar-23 07:18N 47°34' W 052°42'0 0.0
2015-Mar-23 06:06N 47°34' W 052°42'0 0.0
2015-Mar-23 04:27N 47°34' W 052°42'0 0.1
2015-Mar-23 03:29N 47°34' W 052°42'  

Dump ship's entire track history